South Laguna, California
Current Conditions -  °F | °C
As of 1:53 PM on Thursday 27 Nov 2014 (Local Time) from KSNA Reporting Station
Scattered Clouds Scattered Clouds  
Wind Chill: 88°   Ceiling: Unl
Heat Index: 88°   Visibility: 10mi
Dew Point: 22°   Wind: 5mph
Humidity: 9%   Direction: 210°SSW
Pressure: 30"   Gusts: NA
Location:  33.5745°N, 117.786°W
Report Text: KSNA 272153Z 21004KT 10SM SCT300 31/M06 A3000 RMK AO2 SLP157 T03111056
Loading
Personal Weather Stations






























Interactive Weather Map New forecast layout! Learn more

10-Day Weather Forecast

Advertisements
Track Severe Weather on mobile